Time;durP1;ratioP1;P1;durP2;ratioP2;P2;SDS_P1;SDS_P2;PMS_P1;PMS_P2;Temp;Humidity;BMP_temperature;BMP_pressure;BME280_temperature;BME280_humidity;BME280_pressure;Samples;Min_cycle;Max_cycle;Signal;HPM_P1;HPM_P2
2023/07/19 00:02:58;;;;;;;10.70;5.20;;;;;;;15.49;69.22;100510.56;106448;1256;96612;-81
2023/07/19 00:05:44;;;;;;;9.00;6.10;;;;;;;15.48;69.12;100505.02;106228;1259;96618;-79
2023/07/19 00:08:32;;;;;;;10.00;6.10;;;;;;;15.43;69.25;100505.80;106146;1256;99966;-79
2023/07/19 00:11:18;;;;;;;16.30;7.80;;;;;;;15.38;69.52;100507.31;106170;1256;99071;-81
2023/07/19 00:14:05;;;;;;;14.40;7.30;;;;;;;15.31;69.65;100502.92;106314;1256;99132;-80
2023/07/19 00:16:51;;;;;;;12.50;5.90;;;;;;;15.26;69.84;100496.52;106058;1259;96794;-80
2023/07/19 00:19:36;;;;;;;9.80;5.90;;;;;;;15.21;69.89;100491.42;106502;1259;97220;-80
2023/07/19 00:22:22;;;;;;;12.30;5.70;;;;;;;15.17;70.17;100488.58;106388;1259;100029;-80
2023/07/19 00:25:08;;;;;;;11.90;5.50;;;;;;;15.11;70.08;100491.03;106138;1257;107401;-80
2023/07/19 00:27:54;;;;;;;10.00;5.50;;;;;;;15.06;70.25;100492.11;106214;1256;99073;-80
2023/07/19 00:30:40;;;;;;;9.40;4.80;;;;;;;15.03;70.62;100490.43;105784;1257;96816;-79
2023/07/19 00:33:25;;;;;;;9.20;4.60;;;;;;;15.00;70.70;100489.45;105964;1257;97144;-79
2023/07/19 00:36:12;;;;;;;5.90;4.10;;;;;;;14.99;71.19;100487.15;106360;1260;101130;-79
2023/07/19 00:38:58;;;;;;;5.80;3.90;;;;;;;14.99;71.10;100485.27;105726;1257;99139;-80
2023/07/19 00:41:43;;;;;;;8.30;3.70;;;;;;;14.95;71.16;100482.81;106151;1259;97802;-79
2023/07/19 00:44:29;;;;;;;9.10;4.30;;;;;;;14.89;70.88;100485.13;106151;1255;97487;-80
2023/07/19 00:47:15;;;;;;;7.40;3.30;;;;;;;14.80;70.72;100487.25;106529;1259;97030;-79
2023/07/19 00:50:00;;;;;;;7.20;3.70;;;;;;;14.73;71.14;100487.88;106294;1260;101702;-80
2023/07/19 00:52:46;;;;;;;10.40;3.60;;;;;;;14.68;71.31;100478.91;106148;1257;99861;-80
2023/07/19 00:55:32;;;;;;;7.20;4.10;;;;;;;14.63;71.29;100474.01;106282;1257;99615;-81
2023/07/19 00:58:20;;;;;;;5.60;3.60;;;;;;;14.61;71.66;100468.84;106323;1256;96603;-81
2023/07/19 01:01:08;;;;;;;5.80;3.50;;;;;;;14.58;71.49;100462.21;107134;1260;96687;-81
2023/07/19 01:03:54;;;;;;;6.50;3.80;;;;;;;14.54;71.36;100462.45;106168;1256;100667;-80
2023/07/19 01:06:41;;;;;;;7.70;3.40;;;;;;;14.49;71.42;100455.20;106121;1257;99311;-79
2023/07/19 01:09:29;;;;;;;7.00;3.50;;;;;;;14.44;71.35;100452.39;106308;1263;97838;-79
2023/07/19 01:12:14;;;;;;;4.70;3.70;;;;;;;14.38;71.54;100451.00;106297;1257;96540;-80
2023/07/19 01:15:02;;;;;;;8.80;4.50;;;;;;;14.37;71.91;100451.05;106467;1259;97109;-80
2023/07/19 01:17:47;;;;;;;5.40;4.00;;;;;;;14.35;71.97;100453.41;105811;1256;100125;-79
2023/07/19 01:20:34;;;;;;;6.10;3.60;;;;;;;14.31;71.84;100455.09;105717;1259;100473;-80
2023/07/19 01:23:20;;;;;;;6.60;3.40;;;;;;;14.27;72.00;100455.50;105838;1261;97780;-79
2023/07/19 01:26:07;;;;;;;4.60;3.70;;;;;;;14.15;71.90;100454.21;105771;1262;96610;-80
2023/07/19 01:28:57;;;;;;;5.70;3.10;;;;;;;14.01;72.12;100456.59;105711;1256;96550;-80
2023/07/19 01:31:43;;;;;;;6.90;3.30;;;;;;;13.91;72.01;100452.44;106072;1258;100058;-81
2023/07/19 01:34:29;;;;;;;6.60;2.80;;;;;;;13.81;71.98;100455.57;106297;1256;99121;-79
2023/07/19 01:37:14;;;;;;;6.30;2.80;;;;;;;13.75;72.32;100454.05;106311;1259;97876;-83
2023/07/19 01:40:01;;;;;;;7.00;3.10;;;;;;;13.71;72.20;100455.17;106454;1257;96596;-79
2023/07/19 01:42:47;;;;;;;5.30;2.80;;;;;;;13.70;72.49;100449.27;105728;1259;97289;-81
2023/07/19 01:45:32;;;;;;;9.30;2.90;;;;;;;13.74;72.66;100454.15;106316;1260;100024;-79
2023/07/19 01:48:18;;;;;;;7.30;3.80;;;;;;;13.79;72.96;100449.65;106343;1256;99109;-80
2023/07/19 01:51:05;;;;;;;5.40;4.30;;;;;;;13.82;73.19;100448.24;105862;1256;97749;-79
2023/07/19 01:53:52;;;;;;;7.80;4.80;;;;;;;13.83;72.97;100444.63;106289;1259;97534;-81
2023/07/19 01:56:38;;;;;;;7.80;4.20;;;;;;;13.80;73.09;100444.39;106330;1259;97040;-81
2023/07/19 01:59:23;;;;;;;9.90;4.50;;;;;;;13.79;73.32;100442.39;106317;1266;100070;-80
2023/07/19 02:02:09;;;;;;;8.40;4.70;;;;;;;13.81;73.17;100441.64;106249;1261;99028;-81
2023/07/19 02:04:54;;;;;;;6.20;4.20;;;;;;;13.82;73.35;100440.15;106530;1257;99384;-80
2023/07/19 02:07:40;;;;;;;7.90;4.60;;;;;;;13.84;73.38;100439.99;106279;1256;96641;-81
2023/07/19 02:10:26;;;;;;;6.80;4.30;;;;;;;13.80;73.39;100440.98;106141;1259;97377;-79
2023/07/19 02:13:11;;;;;;;7.30;4.20;;;;;;;13.74;73.25;100438.06;106101;1256;100174;-80
2023/07/19 02:16:04;;;;;;;7.20;4.90;;;;;;;13.75;73.35;100438.58;106220;1259;99239;-81
2023/07/19 02:18:50;;;;;;;6.00;3.70;;;;;;;13.77;73.80;100436.24;106129;1260;97816;-82
2023/07/19 02:21:35;;;;;;;5.90;3.90;;;;;;;13.77;74.00;100438.48;106199;1259;96613;-81
2023/07/19 02:24:21;;;;;;;10.30;3.90;;;;;;;13.74;73.63;100441.92;105638;1262;97131;-80
2023/07/19 02:27:08;;;;;;;8.40;4.70;;;;;;;13.69;73.61;100441.55;106272;1261;100028;-80
2023/07/19 02:29:53;;;;;;;8.80;4.70;;;;;;;13.66;73.76;100440.98;106332;1258;99434;-80
2023/07/19 02:32:38;;;;;;;7.80;4.70;;;;;;;13.63;73.58;100445.27;105757;1262;97782;-81
2023/07/19 02:35:24;;;;;;;8.40;4.10;;;;;;;13.55;73.21;100453.02;105939;1259;97525;-80
2023/07/19 02:38:09;;;;;;;6.00;3.70;;;;;;;13.49;73.35;100456.63;105873;1259;97108;-80
2023/07/19 02:41:01;;;;;;;6.60;3.70;;;;;;;13.46;73.36;100454.65;105905;1262;100064;-81
2023/07/19 02:43:47;;;;;;;6.50;3.80;;;;;;;13.40;73.49;100448.81;106840;1256;99219;-80
2023/07/19 02:46:32;;;;;;;5.90;3.20;;;;;;;13.34;73.42;100442.23;106300;1257;98813;-80
2023/07/19 02:49:18;;;;;;;5.50;3.50;;;;;;;13.29;73.33;100437.27;106164;1259;96646;-80
2023/07/19 02:52:04;;;;;;;4.20;3.00;;;;;;;13.25;73.04;100434.05;106410;1256;97030;-80
2023/07/19 02:54:49;;;;;;;5.70;3.80;;;;;;;13.23;73.28;100427.31;106292;1256;99987;-80
2023/07/19 02:57:35;;;;;;;6.80;3.50;;;;;;;13.21;73.63;100424.32;106388;1259;100381;-81
2023/07/19 03:00:20;;;;;;;6.10;4.40;;;;;;;13.17;73.62;100425.95;106443;1259;98291;-79
2023/07/19 03:03:06;;;;;;;6.30;4.30;;;;;;;13.13;73.79;100425.69;106398;1260;96568;-81
2023/07/19 03:05:51;;;;;;;8.40;4.80;;;;;;;13.12;73.89;100424.12;106318;1259;97119;-80
2023/07/19 03:08:37;;;;;;;7.20;4.20;;;;;;;13.08;73.64;100424.13;106427;1257;99976;-81
2023/07/19 03:11:23;;;;;;;4.50;3.50;;;;;;;13.05;73.63;100426.48;106250;1256;100484;-79
2023/07/19 03:14:09;;;;;;;7.30;3.90;;;;;;;13.04;74.19;100424.77;106000;1260;97738;-79
2023/07/19 03:16:55;;;;;;;6.80;3.90;;;;;;;13.05;74.33;100428.58;105821;1262;96523;-80
2023/07/19 03:19:40;;;;;;;6.60;4.40;;;;;;;13.03;74.48;100427.60;105821;1257;98331;-80
2023/07/19 03:22:26;;;;;;;12.30;4.40;;;;;;;13.12;75.28;100421.25;106195;1258;99974;-80
2023/07/19 03:25:11;;;;;;;8.50;5.10;;;;;;;13.26;75.43;100421.88;106306;1262;99215;-80
2023/07/19 03:27:57;;;;;;;9.50;5.90;;;;;;;13.35;75.23;100423.27;106317;1262;97780;-80
2023/07/19 03:30:43;;;;;;;11.30;5.70;;;;;;;13.40;74.83;100420.79;106296;1259;96606;-81
2023/07/19 03:33:28;;;;;;;8.30;5.60;;;;;;;13.44;75.01;100415.73;106147;1261;96527;-81
2023/07/19 03:36:14;;;;;;;7.50;4.80;;;;;;;13.52;75.10;100415.14;106256;1257;100067;-82
2023/07/19 03:38:59;;;;;;;6.30;4.70;;;;;;;13.64;75.34;100411.75;106273;1256;99193;-81
2023/07/19 03:41:45;;;;;;;9.30;4.60;;;;;;;13.75;75.66;100412.89;106483;1258;99348;-82
2023/07/19 03:44:31;;;;;;;9.90;4.80;;;;;;;13.85;75.88;100408.42;106355;1257;96631;-82
2023/07/19 03:47:17;;;;;;;9.00;4.60;;;;;;;13.93;75.84;100405.83;106234;1260;97116;-82
2023/07/19 03:50:03;;;;;;;10.50;5.50;;;;;;;13.96;75.52;100405.02;106236;1257;100043;-82
2023/07/19 03:52:51;;;;;;;7.30;4.90;;;;;;;13.96;75.45;100406.73;106333;1260;99836;-80
2023/07/19 03:55:37;;;;;;;8.80;4.80;;;;;;;13.95;75.16;100409.29;106210;1259;100438;-80
2023/07/19 03:58:24;;;;;;;10.00;4.60;;;;;;;13.96;75.29;100405.81;106211;1258;96526;-81
2023/07/19 04:01:10;;;;;;;7.20;4.10;;;;;;;14.01;75.52;100406.63;106344;1260;97200;-82
2023/07/19 04:03:55;;;;;;;7.90;4.30;;;;;;;14.08;75.67;100409.29;106189;1262;100881;-79
2023/07/19 04:06:42;;;;;;;7.70;4.70;;;;;;;14.14;75.77;100407.35;106028;1260;99719;-80
2023/07/19 04:09:30;;;;;;;7.30;4.30;;;;;;;14.24;76.20;100405.36;106285;1257;97817;-80
2023/07/19 04:12:16;;;;;;;6.70;4.40;;;;;;;14.33;76.26;100400.77;106259;1256;96040;-83
2023/07/19 04:15:01;;;;;;;9.10;5.00;;;;;;;14.37;76.44;100400.46;106291;1262;96422;-81
2023/07/19 04:17:47;;;;;;;7.00;4.40;;;;;;;14.44;76.63;100402.01;106227;1257;100155;-82
2023/07/19 04:20:33;;;;;;;9.00;4.30;;;;;;;14.50;76.49;100400.44;106186;1259;107789;-82
2023/07/19 04:23:20;;;;;;;7.60;4.40;;;;;;;14.54;76.32;100404.89;106259;1265;99087;-81
2023/07/19 04:26:05;;;;;;;6.70;4.00;;;;;;;14.59;76.72;100402.16;106133;1264;96578;-81
2023/07/19 04:28:51;;;;;;;8.30;4.40;;;;;;;14.64;76.88;100400.17;106152;1262;96673;-83
2023/07/19 04:31:37;;;;;;;5.90;3.70;;;;;;;14.65;76.86;100398.59;106507;1259;99980;-82
2023/07/19 04:34:22;;;;;;;10.20;4.50;;;;;;;14.68;77.16;100396.42;106134;1258;99151;-81
2023/07/19 04:37:08;;;;;;;8.60;4.00;;;;;;;14.68;77.82;100397.95;106210;1259;97756;-81
2023/07/19 04:39:54;;;;;;;6.20;3.60;;;;;;;14.74;78.10;100398.98;106325;1261;96587;-82
2023/07/19 04:42:43;;;;;;;8.20;3.90;;;;;;;14.81;78.13;100400.63;106179;1268;96584;-83
2023/07/19 04:45:30;;;;;;;8.00;4.90;;;;;;;14.90;78.05;100400.27;106395;1256;100059;-81
2023/07/19 04:48:16;;;;;;;12.00;6.00;;;;;;;14.98;78.03;100396.89;106223;1262;100086;-81
2023/07/19 04:51:01;;;;;;;9.40;4.50;;;;;;;15.08;78.44;100399.66;106201;1260;98971;-82
2023/07/19 04:53:47;;;;;;;9.30;5.10;;;;;;;15.15;78.25;100398.85;106260;1257;97782;-82
2023/07/19 04:56:33;;;;;;;9.70;6.10;;;;;;;15.26;78.53;100398.02;106210;1259;97036;-79
2023/07/19 04:59:20;;;;;;;9.70;5.10;;;;;;;15.38;78.86;100395.89;106123;1261;101162;-82
2023/07/19 05:02:07;;;;;;;9.00;5.10;;;;;;;15.50;79.31;100393.43;106258;1261;99259;-82
2023/07/19 05:04:53;;;;;;;9.90;5.00;;;;;;;15.64;79.73;100391.80;106143;1263;97760;-81
2023/07/19 05:07:40;;;;;;;9.20;4.90;;;;;;;15.78;79.75;100389.68;106025;1263;96599;-83
2023/07/19 05:10:25;;;;;;;9.80;5.00;;;;;;;15.92;79.84;100388.52;106198;1261;96546;-83
2023/07/19 05:13:11;;;;;;;16.80;5.30;;;;;;;16.07;79.99;100386.33;106226;1262;99963;-82
2023/07/19 05:16:00;;;;;;;7.40;4.50;;;;;;;16.24;79.87;100387.44;106281;1258;100932;-82
2023/07/19 05:18:46;;;;;;;10.30;5.10;;;;;;;16.41;79.67;100384.55;106536;1261;99112;-82
2023/07/19 05:21:33;;;;;;;9.10;5.20;;;;;;;16.57;80.00;100380.20;106001;1257;96521;-83
2023/07/19 05:24:19;;;;;;;8.70;5.10;;;;;;;16.73;80.49;100377.69;106208;1260;96620;-82
2023/07/19 05:27:05;;;;;;;13.80;5.90;;;;;;;16.87;80.44;100377.09;106129;1261;100744;-82
2023/07/19 05:29:51;;;;;;;12.20;5.70;;;;;;;17.01;80.38;100377.64;106262;1260;99099;-82
2023/07/19 05:32:37;;;;;;;10.60;6.10;;;;;;;17.14;80.32;100373.71;106047;1262;98288;-83
2023/07/19 05:35:22;;;;;;;10.30;5.30;;;;;;;17.26;79.95;100371.13;106063;1258;96868;-82
2023/07/19 05:38:08;;;;;;;7.90;5.20;;;;;;;17.38;79.74;100368.27;106374;1257;96555;-82
2023/07/19 05:41:01;;;;;;;14.90;5.00;;;;;;;17.49;79.36;100372.89;106021;1257;99983;-81
2023/07/19 05:43:48;;;;;;;5.60;3.80;;;;;;;17.60;78.44;100371.02;106027;1261;100357;-80
2023/07/19 05:46:36;;;;;;;7.10;4.30;;;;;;;17.75;77.91;100374.05;106168;1257;97716;-81
2023/07/19 05:49:21;;;;;;;9.50;4.10;;;;;;;17.89;77.60;100375.11;106137;1255;96712;-81
2023/07/19 05:52:07;;;;;;;5.80;3.80;;;;;;;18.02;77.07;100370.66;106405;1257;96709;-81
2023/07/19 05:54:52;;;;;;;9.40;4.60;;;;;;;18.16;77.28;100367.31;106230;1257;100652;-81
2023/07/19 05:57:37;;;;;;;6.30;4.40;;;;;;;18.33;77.33;100367.58;106302;1258;100427;-82
2023/07/19 06:00:24;;;;;;;5.90;3.60;;;;;;;18.50;76.81;100367.33;106382;1257;98602;-82
2023/07/19 06:03:10;;;;;;;7.90;4.20;;;;;;;18.68;77.14;100367.70;106139;1257;97590;-83
2023/07/19 06:05:56;;;;;;;8.10;4.20;;;;;;;18.87;76.62;100366.83;106658;1257;95882;-88
2023/07/19 06:08:41;;;;;;;11.00;4.50;;;;;;;19.01;75.77;100362.41;106413;1260;99992;-84
2023/07/19 06:11:27;;;;;;;8.20;3.70;;;;;;;19.17;75.39;100363.63;106005;1256;99738;-87
2023/07/19 06:14:13;;;;;;;7.30;3.00;;;;;;;19.33;74.84;100362.73;105981;1261;97801;-85
2023/07/19 06:16:59;;;;;;;4.80;2.80;;;;;;;19.48;74.03;100356.66;105994;1257;96520;-86
2023/07/19 06:19:44;;;;;;;4.40;2.90;;;;;;;19.62;72.38;100356.43;106187;1260;96510;-85
2023/07/19 06:22:31;;;;;;;6.60;2.60;;;;;;;19.75;72.45;100357.26;105930;1257;101228;-85
2023/07/19 06:25:17;;;;;;;6.10;3.00;;;;;;;19.88;70.90;100353.08;106352;1257;99039;-84
2023/07/19 06:28:03;;;;;;;4.30;2.70;;;;;;;20.01;69.37;100352.84;105972;1257;97751;-85
2023/07/19 06:30:49;;;;;;;4.80;2.30;;;;;;;20.13;68.69;100348.52;106141;1256;96709;-85
2023/07/19 06:33:34;;;;;;;6.10;2.50;;;;;;;20.25;68.05;100348.46;106246;1264;96939;-85
2023/07/19 06:36:19;;;;;;;13.40;2.70;;;;;;;20.37;67.66;100347.63;105990;1260;101354;-84
2023/07/19 06:39:05;;;;;;;6.20;2.30;;;;;;;20.47;65.99;100348.81;105979;1260;99278;-84
2023/07/19 06:41:52;;;;;;;4.80;2.30;;;;;;;20.57;65.32;100345.52;106121;1256;97609;-84
2023/07/19 06:44:38;;;;;;;4.40;2.40;;;;;;;20.69;65.57;100347.11;106109;1257;96700;-88
2023/07/19 06:47:26;;;;;;;6.10;2.60;;;;;;;20.81;65.02;100345.14;106020;1257;97122;-84
2023/07/19 06:50:13;;;;;;;5.90;2.50;;;;;;;20.93;64.31;100334.99;106331;1257;101140;-84
2023/07/19 06:53:00;;;;;;;5.20;2.40;;;;;;;21.04;63.52;100337.83;105668;1260;100076;-84
2023/07/19 06:55:46;;;;;;;3.60;2.10;;;;;;;21.17;62.58;100336.40;105936;1260;99504;-84
2023/07/19 06:58:32;;;;;;;5.00;2.30;;;;;;;21.27;61.41;100331.83;106272;1257;96712;-86
2023/07/19 07:01:18;;;;;;;5.10;2.00;;;;;;;21.39;60.78;100329.14;106284;1256;97020;-84
2023/07/19 07:04:03;;;;;;;7.80;2.00;;;;;;;21.52;59.22;100331.27;106016;1257;100165;-85
2023/07/19 07:06:49;;;;;;;5.50;1.80;;;;;;;21.64;58.41;100330.56;106045;1260;99326;-84
2023/07/19 07:09:36;;;;;;;4.90;1.50;;;;;;;21.73;57.69;100329.91;105896;1257;99156;-83
2023/07/19 07:12:22;;;;;;;2.70;1.40;;;;;;;21.84;57.23;100332.42;106109;1255;96632;-84
2023/07/19 07:15:08;;;;;;;2.30;1.80;;;;;;;21.96;56.53;100331.88;106129;1257;97602;-84
2023/07/19 07:17:54;;;;;;;3.70;1.50;;;;;;;22.08;56.27;100327.02;106077;1258;101086;-84
2023/07/19 07:20:40;;;;;;;4.10;1.90;;;;;;;22.19;54.88;100329.00;106073;1260;99293;-84
2023/07/19 07:23:26;;;;;;;3.20;1.40;;;;;;;22.27;54.57;100330.48;105817;1260;97461;-85
2023/07/19 07:26:12;;;;;;;5.60;1.70;;;;;;;22.35;54.02;100325.98;105954;1256;96786;-83
2023/07/19 07:28:58;;;;;;;3.10;1.50;;;;;;;22.44;53.95;100323.65;106005;1258;97053;-85
2023/07/19 07:31:43;;;;;;;3.80;1.60;;;;;;;22.54;53.73;100323.06;106121;1257;100943;-84
2023/07/19 07:34:29;;;;;;;6.90;2.20;;;;;;;22.64;52.98;100323.14;105784;1258;145961;-86
2023/07/19 07:37:15;;;;;;;6.10;1.70;;;;;;;22.73;52.52;100319.49;105922;1260;97798;-87
2023/07/19 07:40:01;;;;;;;3.10;1.70;;;;;;;22.82;51.80;100315.55;106130;1263;96595;-85
2023/07/19 07:42:46;;;;;;;3.40;1.70;;;;;;;22.91;51.50;100311.52;106168;1257;96799;-85
2023/07/19 07:45:32;;;;;;;8.00;1.70;;;;;;;22.99;51.18;100309.15;105988;1256;100110;-85
2023/07/19 07:48:17;;;;;;;4.20;1.70;;;;;;;23.06;50.70;100305.16;106141;1257;100195;-85
2023/07/19 07:51:03;;;;;;;4.30;1.70;;;;;;;23.14;50.43;100307.33;106005;1260;99092;-84
2023/07/19 07:53:49;;;;;;;2.60;1.50;;;;;;;23.22;49.79;100305.30;105990;1260;97060;-85
2023/07/19 07:56:34;;;;;;;2.40;1.40;;;;;;;23.28;48.99;100300.04;105846;1257;96909;-85
2023/07/19 07:59:20;;;;;;;2.20;1.20;;;;;;;23.32;47.91;100294.07;106011;1260;100773;-86
2023/07/19 08:02:06;;;;;;;3.80;1.20;;;;;;;23.35;47.34;100293.52;106023;1257;99333;-87
2023/07/19 08:04:52;;;;;;;2.90;1.30;;;;;;;23.39;46.41;100287.39;105884;1257;98514;-85
2023/07/19 08:07:38;;;;;;;1.70;1.20;;;;;;;23.44;46.05;100283.88;105919;1257;97877;-85
2023/07/19 08:10:24;;;;;;;2.50;1.70;;;;;;;23.48;46.12;100282.77;105741;1260;98118;-84
2023/07/19 08:13:11;;;;;;;2.70;1.30;;;;;;;23.50;46.30;100278.33;105989;1261;100119;-84
2023/07/19 08:15:57;;;;;;;1.90;1.20;;;;;;;23.56;46.13;100280.55;106257;1257;99258;-85
2023/07/19 08:18:43;;;;;;;1.50;1.30;;;;;;;23.59;45.86;100282.02;105697;1260;97742;-85
2023/07/19 08:21:29;;;;;;;3.80;1.40;;;;;;;23.58;44.35;100279.08;105892;1256;98085;-83
2023/07/19 08:24:15;;;;;;;3.00;1.30;;;;;;;23.56;43.93;100273.77;105912;1257;98651;-85
2023/07/19 08:27:01;;;;;;;1.50;1.40;;;;;;;23.60;44.43;100267.36;106160;1258;100001;-85
2023/07/19 08:29:46;;;;;;;3.40;1.40;;;;;;;23.64;44.30;100260.77;106158;1256;99137;-85
2023/07/19 08:32:33;;;;;;;1.50;1.30;;;;;;;23.63;43.80;100255.15;105904;1262;97903;-86
2023/07/19 08:35:19;;;;;;;4.50;1.60;;;;;;;23.65;44.66;100252.64;105843;1257;96541;-85
2023/07/19 08:38:05;;;;;;;3.80;1.40;;;;;;;23.68;44.35;100246.48;105862;1257;96704;-86
2023/07/19 08:41:01;;;;;;;3.30;1.40;;;;;;;23.69;44.33;100243.91;105979;1259;101187;-83
2023/07/19 08:43:48;;;;;;;2.20;1.00;;;;;;;23.74;44.27;100242.73;106090;1260;100308;-84
2023/07/19 08:46:33;;;;;;;4.20;2.90;;;;;;;23.81;44.56;100244.08;105767;1256;97799;-84
2023/07/19 08:49:19;;;;;;;5.20;1.90;;;;;;;23.84;43.92;100243.05;105866;1273;96539;-84
2023/07/19 08:52:07;;;;;;;1.70;1.30;;;;;;;23.88;43.17;100241.73;105710;1257;95963;-87
2023/07/19 08:54:53;;;;;;;2.30;1.20;;;;;;;23.96;42.88;100236.15;105889;1260;100174;-86
2023/07/19 08:57:42;;;;;;;2.50;1.30;;;;;;;24.04;42.87;100238.91;105927;1257;99070;-84
2023/07/19 09:00:33;;;;;;;4.60;1.20;;;;;;;24.14;43.30;100233.92;105921;1262;99103;-85
2023/07/19 09:03:20;;;;;;;2.60;1.10;;;;;;;24.23;42.43;100231.45;105949;1257;96681;-85
2023/07/19 09:06:06;;;;;;;4.50;1.40;;;;;;;24.26;42.84;100229.24;105966;1257;96786;-86
2023/07/19 09:08:52;;;;;;;4.60;1.30;;;;;;;24.29;42.38;100229.16;106110;1256;100831;-85
2023/07/19 09:11:42;;;;;;;2.40;1.20;;;;;;;24.28;42.72;100234.80;106246;1256;99258;-85
2023/07/19 09:14:35;;;;;;;8.70;2.20;;;;;;;24.31;42.48;100236.81;106091;1257;98710;-85
2023/07/19 09:17:22;;;;;;;4.90;1.40;;;;;;;24.43;42.60;100231.52;106127;1261;96691;-85
2023/07/19 09:20:08;;;;;;;1.40;1.00;;;;;;;24.56;42.18;100222.31;106351;1255;97170;-85
2023/07/19 09:22:58;;;;;;;2.70;1.10;;;;;;;24.68;41.15;100216.17;106212;1256;100063;-91
2023/07/19 09:25:52;;;;;;;4.20;1.30;;;;;;;24.75;40.88;100218.66;106354;1260;99235;-85
2023/07/19 09:28:38;;;;;;;3.50;1.30;;;;;;;24.79;41.03;100221.89;106250;1256;97703;-88
2023/07/19 09:31:25;;;;;;;2.20;1.40;;;;;;;24.79;40.24;100224.53;105994;1263;96743;-89
2023/07/19 09:34:11;;;;;;;2.70;1.00;;;;;;;24.79;39.66;100231.05;106203;1262;97248;-84
2023/07/19 09:36:56;;;;;;;1.70;1.10;;;;;;;24.85;40.56;100228.09;106384;1256;100022;-86
2023/07/19 09:39:42;;;;;;;1.40;1.10;;;;;;;24.95;40.14;100222.29;106492;1258;99902;-80
2023/07/19 09:42:32;;;;;;;4.20;1.40;;;;;;;25.02;38.63;100216.68;106314;1259;98971;-80
2023/07/19 09:45:18;;;;;;;2.60;1.40;;;;;;;25.06;39.07;100211.48;106327;1261;96578;-82
2023/07/19 09:48:04;;;;;;;1.30;1.10;;;;;;;25.13;39.40;100210.18;105975;1256;96735;-83
2023/07/19 09:50:54;;;;;;;4.10;1.40;;;;;;;25.20;39.71;100204.58;106247;1256;100028;-86
2023/07/19 09:53:40;;;;;;;3.90;1.30;;;;;;;25.27;39.36;100199.98;105933;1259;99105;-84
2023/07/19 09:56:26;;;;;;;2.80;1.40;;;;;;;25.33;39.04;100194.38;105984;1256;97619;-85
2023/07/19 09:59:16;;;;;;;3.00;1.80;;;;;;;25.35;38.26;100189.81;106404;1262;96707;-86
2023/07/19 10:02:02;;;;;;;5.40;1.30;;;;;;;25.29;37.44;100183.46;106121;1256;97127;-89
2023/07/19 10:04:50;;;;;;;3.90;1.30;;;;;;;25.25;37.69;100177.04;106654;1256;101301;-85
2023/07/19 10:07:37;;;;;;;3.50;1.40;;;;;;;25.31;38.28;100173.63;106250;1260;99183;-85
2023/07/19 10:10:35;;;;;;;4.60;1.20;;;;;;;25.39;37.97;100168.46;106136;1256;97806;-85
2023/07/19 10:13:31;;;;;;;3.20;1.30;;;;;;;25.42;37.56;100162.58;106219;1260;96517;-85
2023/07/19 10:16:24;;;;;;;2.00;1.10;;;;;;;25.46;38.12;100159.27;107474;1256;96572;-85
2023/07/19 10:19:14;;;;;;;3.20;1.30;;;;;;;25.48;37.76;100156.81;106099;1257;100008;-83
2023/07/19 10:22:05;;;;;;;4.00;1.30;;;;;;;25.48;37.60;100155.05;106203;1259;99182;-84
2023/07/19 10:25:03;;;;;;;3.00;1.20;;;;;;;25.49;38.14;100149.44;106141;1258;97808;-84
2023/07/19 10:28:10;;;;;;;2.10;1.20;;;;;;;25.55;38.76;100148.15;105927;1258;96479;-83
2023/07/19 10:30:57;;;;;;;3.20;1.20;;;;;;;25.66;38.74;100142.60;106334;1256;94464;-86
2023/07/19 10:33:43;;;;;;;3.30;1.20;;;;;;;25.83;38.56;100136.05;106116;1259;100060;-83
2023/07/19 10:36:29;;;;;;;4.90;1.20;;;;;;;25.94;37.68;100124.67;106311;1263;99706;-87
2023/07/19 10:39:15;;;;;;;1.60;1.10;;;;;;;26.00;38.45;100120.61;106085;1263;98915;-85
2023/07/19 10:42:01;;;;;;;2.10;1.10;;;;;;;26.11;38.64;100126.55;106093;1260;96668;-85
2023/07/19 10:44:47;;;;;;;1.50;1.20;;;;;;;26.18;37.93;100121.39;106194;1259;98123;-86
2023/07/19 10:47:33;;;;;;;5.80;1.50;;;;;;;26.16;37.03;100121.20;105964;1255;101135;-85
2023/07/19 10:50:24;;;;;;;3.00;1.40;;;;;;;26.11;37.86;100119.24;106117;1256;99246;-84
2023/07/19 10:53:10;;;;;;;1.90;1.40;;;;;;;26.10;37.36;100118.33;106105;1256;99048;-84
2023/07/19 10:55:58;;;;;;;4.50;1.30;;;;;;;26.05;36.55;100115.55;105921;1257;96692;-84
2023/07/19 10:58:44;;;;;;;4.90;1.20;;;;;;;25.99;36.53;100113.60;106061;1261;96601;-84
2023/07/19 11:01:31;;;;;;;3.00;1.40;;;;;;;26.00;36.74;100108.82;105930;1263;100105;-85
2023/07/19 11:04:20;;;;;;;4.00;1.30;;;;;;;26.03;36.82;100105.31;106002;1256;100487;-87
2023/07/19 11:07:06;;;;;;;1.90;1.50;;;;;;;26.04;35.94;100101.28;105936;1263;97804;-85
2023/07/19 11:09:52;;;;;;;2.50;1.20;;;;;;;26.02;35.85;100098.58;106110;1257;96668;-86
2023/07/19 11:12:38;;;;;;;3.30;1.60;;;;;;;26.03;36.03;100096.30;106096;1259;96451;-85
2023/07/19 11:15:26;;;;;;;2.30;1.20;;;;;;;26.07;35.94;100096.09;106220;1259;100197;-86
2023/07/19 11:18:12;;;;;;;2.10;1.20;;;;;;;26.07;35.72;100092.89;106204;1262;100253;-85
2023/07/19 11:20:59;;;;;;;1.90;1.20;;;;;;;26.10;36.54;100091.55;106225;1259;99222;-85
2023/07/19 11:23:44;;;;;;;2.00;1.10;;;;;;;26.14;35.82;100090.55;106488;1256;96613;-89
2023/07/19 11:26:31;;;;;;;3.50;1.30;;;;;;;26.17;35.50;100093.46;106276;1258;96649;-84
2023/07/19 11:29:17;;;;;;;6.10;1.90;;;;;;;26.18;36.12;100092.90;107010;1256;101304;-81
2023/07/19 11:32:23;;;;;;;2.40;1.50;;;;;;;26.17;36.54;100095.31;107188;1256;99154;-81
2023/07/19 11:35:08;;;;;;;5.10;1.60;;;;;;;26.19;36.78;100095.46;106993;1256;99074;-80
2023/07/19 11:37:54;;;;;;;3.20;1.60;;;;;;;26.21;36.50;100095.80;107242;1259;96419;-81
2023/07/19 11:40:43;;;;;;;2.70;1.20;;;;;;;26.25;36.06;100094.02;107259;1255;96882;-81
2023/07/19 11:43:28;;;;;;;2.40;1.20;;;;;;;26.29;35.10;100089.02;107001;1257;101330;-80
2023/07/19 11:46:14;;;;;;;2.30;1.30;;;;;;;26.30;35.40;100086.57;107038;1256;99178;-80
2023/07/19 11:48:59;;;;;;;2.10;1.40;;;;;;;26.33;35.75;100085.09;107167;1256;97692;-80
2023/07/19 11:51:46;;;;;;;2.90;1.40;;;;;;;26.38;35.49;100075.27;107196;1259;96400;-80
2023/07/19 11:54:31;;;;;;;4.20;1.50;;;;;;;26.45;35.98;100074.92;107178;1260;96535;-80
2023/07/19 11:57:17;;;;;;;2.20;1.20;;;;;;;26.49;35.77;100073.90;106559;1259;100098;-79
2023/07/19 12:00:02;;;;;;;1.80;1.20;;;;;;;26.52;35.93;100072.59;106459;1259;99897;-79
2023/07/19 12:02:51;;;;;;;2.40;1.30;;;;;;;26.55;35.49;100070.00;106451;1256;97720;-79
2023/07/19 12:05:39;;;;;;;2.10;1.40;;;;;;;26.64;36.33;100068.98;106648;1259;96617;-79
2023/07/19 12:08:25;;;;;;;4.00;1.60;;;;;;;26.84;36.43;100062.09;106620;1259;96607;-79
2023/07/19 12:11:11;;;;;;;5.10;1.50;;;;;;;26.97;36.06;100058.70;106167;1259;100743;-78
2023/07/19 12:13:58;;;;;;;2.10;1.60;;;;;;;27.06;35.72;100057.98;105840;1256;100543;-78
2023/07/19 12:16:44;;;;;;;4.30;1.70;;;;;;;27.13;35.74;100052.70;105643;1261;97719;-78
2023/07/19 12:19:29;;;;;;;2.60;1.30;;;;;;;27.19;35.68;100050.91;105957;1259;97800;-79
2023/07/19 12:22:15;;;;;;;3.90;1.20;;;;;;;27.25;34.60;100045.73;106820;1256;97267;-79
2023/07/19 12:25:01;;;;;;;1.60;1.10;;;;;;;27.25;34.09;100043.40;106381;1259;99964;-79
2023/07/19 12:27:52;;;;;;;5.00;1.20;;;;;;;27.19;34.01;100041.02;106368;1255;100393;-79
2023/07/19 12:30:39;;;;;;;;;;;;;;;27.11;33.94;100033.66;106391;1256;97740;-79
2023/07/19 12:33:25;;;;;;;2.30;1.30;;;;;;;27.06;33.78;100032.09;106359;1259;96570;-78
2023/07/19 12:36:10;;;;;;;4.40;1.60;;;;;;;27.04;34.25;100030.64;105822;1260;97142;-78
2023/07/19 12:38:56;;;;;;;1.60;1.40;;;;;;;27.11;34.11;100028.98;105887;1256;101471;-78
2023/07/19 12:41:42;;;;;;;2.40;2.10;;;;;;;27.21;34.12;100028.60;106439;1259;99148;-79
2023/07/19 12:44:27;;;;;;;6.20;2.00;;;;;;;27.27;33.99;100023.07;105764;1256;98379;-78